createdAt,value
2023-05-09T00:02:11.376Z,20.50
2023-05-09T00:04:38.304Z,19.15
2023-05-09T00:07:05.076Z,21.75
2023-05-09T00:09:31.816Z,20.25
2023-05-09T00:11:59.822Z,21.50
2023-05-09T00:14:26.568Z,17.77
2023-05-09T00:16:53.302Z,17.55
2023-05-09T00:19:20.183Z,20.25
2023-05-09T00:21:46.895Z,19.40
2023-05-09T00:24:13.557Z,20.25
2023-05-09T00:26:40.252Z,21.45
2023-05-09T00:29:08.340Z,19.30
2023-05-09T00:31:35.061Z,19.58
2023-05-09T00:34:02.228Z,20.80
2023-05-09T00:36:28.926Z,19.10
2023-05-09T00:38:55.616Z,16.70
2023-05-09T00:41:22.362Z,20.60
2023-05-09T00:43:49.034Z,20.55
2023-05-09T00:46:17.248Z,14.88
2023-05-09T00:48:44.176Z,20.60
2023-05-09T00:51:10.870Z,20.88
2023-05-09T00:53:38.066Z,20.95
2023-05-09T00:56:05.555Z,22.17
2023-05-09T00:58:32.441Z,22.75
2023-05-09T01:00:59.182Z,24.83
2023-05-09T01:03:27.561Z,22.27
2023-05-09T01:06:01.964Z,24.20
2023-05-09T01:08:41.354Z,24.35
2023-05-09T01:11:12.981Z,27.38
2023-05-09T01:13:49.687Z,29.10
2023-05-09T01:16:23.633Z,27.65
2023-05-09T01:19:01.029Z,28.80
2023-05-09T01:21:30.349Z,31.40
2023-05-09T01:26:44.468Z,24.60
2023-05-09T01:29:31.653Z,30.30
2023-05-09T01:34:28.476Z,28.95
2023-05-09T01:36:58.568Z,24.67
2023-05-09T01:39:27.071Z,32.53
2023-05-09T01:41:56.634Z,28.55
2023-05-09T01:44:26.792Z,25.27
2023-05-09T01:49:22.986Z,29.35
2023-05-09T01:51:50.840Z,30.75
2023-05-09T01:54:18.713Z,33.03
2023-05-09T01:56:47.324Z,31.65
2023-05-09T01:59:16.076Z,33.05
2023-05-09T02:01:45.151Z,33.17
2023-05-09T02:04:14.008Z,33.65
2023-05-09T02:06:41.680Z,34.58
2023-05-09T02:09:09.044Z,35.92
2023-05-09T02:11:35.745Z,35.75
2023-05-09T02:14:02.601Z,40.22
2023-05-09T02:16:29.609Z,39.45
2023-05-09T02:18:57.691Z,44.88
2023-05-09T02:21:24.725Z,43.90
2023-05-09T02:23:51.502Z,46.10
2023-05-09T02:26:18.923Z,42.30
2023-05-09T02:28:47.070Z,42.40
2023-05-09T02:31:16.915Z,42.20
2023-05-09T02:33:45.399Z,44.58
2023-05-09T02:36:14.603Z,42.15
2023-05-09T02:38:42.492Z,42.40
2023-05-09T02:41:12.868Z,43.85
2023-05-09T02:43:39.599Z,42.97
2023-05-09T02:46:07.470Z,42.45
2023-05-09T02:48:34.230Z,41.22
2023-05-09T02:51:01.024Z,44.05
2023-05-09T02:53:29.262Z,47.42
2023-05-09T02:55:55.965Z,40.95
2023-05-09T02:58:22.773Z,41.33
2023-05-09T03:00:49.504Z,46.58
2023-05-09T03:03:16.741Z,42.70
2023-05-09T03:05:43.800Z,43.08
2023-05-09T03:08:10.485Z,40.33
2023-05-09T03:10:38.607Z,41.65
2023-05-09T03:13:05.356Z,41.90
2023-05-09T03:15:32.548Z,41.47
2023-05-09T03:18:00.248Z,31.92
2023-05-09T03:20:27.050Z,38.97
2023-05-09T03:22:53.908Z,42.05
2023-05-09T03:25:21.169Z,40.90
2023-05-09T03:27:49.587Z,45.83
2023-05-09T03:30:16.422Z,38.95
2023-05-09T03:32:45.626Z,41.55
2023-05-09T03:35:12.597Z,40.03
2023-05-09T03:37:39.706Z,41.67
2023-05-09T03:40:08.724Z,39.30
2023-05-09T03:42:41.624Z,37.95
2023-05-09T03:45:11.257Z,36.55
2023-05-09T03:47:38.183Z,38.15
2023-05-09T03:50:06.979Z,41.13
2023-05-09T03:52:35.012Z,39.70
2023-05-09T03:55:02.205Z,40.08
2023-05-09T03:57:32.983Z,39.97
2023-05-09T04:00:00.439Z,35.33
2023-05-09T04:02:28.632Z,41.28
2023-05-09T04:04:55.643Z,32.90
2023-05-09T04:07:23.231Z,42.88
2023-05-09T04:09:49.991Z,37.65
2023-05-09T04:12:16.702Z,42.22
2023-05-09T04:14:45.139Z,41.53
2023-05-09T04:17:12.942Z,34.20
2023-05-09T04:19:41.270Z,31.95
2023-05-09T04:22:08.101Z,39.55
2023-05-09T04:24:34.833Z,42.33
2023-05-09T04:27:02.042Z,38.67
2023-05-09T04:29:28.752Z,37.03
2023-05-09T04:31:56.531Z,39.65
2023-05-09T04:34:25.695Z,37.42
2023-05-09T04:36:54.329Z,36.88
2023-05-09T04:39:21.734Z,37.67
2023-05-09T04:42:00.847Z,34.58
2023-05-09T04:44:27.759Z,48.15
2023-05-09T04:46:55.043Z,36.15
2023-05-09T04:49:21.770Z,38.28
2023-05-09T04:51:48.577Z,38.63
2023-05-09T04:54:16.964Z,37.00
2023-05-09T04:56:44.483Z,36.65
2023-05-09T04:59:11.569Z,36.58
2023-05-09T05:01:39.124Z,36.13
2023-05-09T05:04:05.899Z,39.60
2023-05-09T05:06:33.461Z,36.53
2023-05-09T05:09:00.633Z,38.72
2023-05-09T05:11:29.358Z,36.60
2023-05-09T05:13:56.183Z,31.20
2023-05-09T05:16:23.461Z,35.88
2023-05-09T05:18:50.308Z,48.25
2023-05-09T05:21:18.896Z,38.33
2023-05-09T05:23:45.766Z,35.60
2023-05-09T05:26:13.837Z,33.95
2023-05-09T05:28:41.915Z,30.65
2023-05-09T05:31:08.833Z,32.88
2023-05-09T05:33:35.830Z,31.95
2023-05-09T05:36:03.687Z,33.25
2023-05-09T05:38:30.469Z,32.83
2023-05-09T05:40:58.829Z,36.28
2023-05-09T05:43:27.710Z,32.10
2023-05-09T05:45:56.166Z,33.65
2023-05-09T05:48:25.038Z,36.80
2023-05-09T05:50:53.502Z,30.52
2023-05-09T05:53:23.943Z,29.77
2023-05-09T05:55:51.478Z,28.60
2023-05-09T05:58:18.215Z,32.03
2023-05-09T06:00:45.103Z,31.10
2023-05-09T06:03:13.221Z,28.92
2023-05-09T06:06:06.228Z,30.70
2023-05-09T06:08:32.926Z,30.45
2023-05-09T06:11:01.241Z,24.48
2023-05-09T06:13:28.515Z,30.08
2023-05-09T06:16:15.071Z,38.70
2023-05-09T06:18:47.012Z,31.20
2023-05-09T06:21:13.767Z,30.45
2023-05-09T06:23:44.758Z,30.45
2023-05-09T06:26:17.701Z,38.75
2023-05-09T06:28:44.432Z,39.50
2023-05-09T06:31:11.218Z,28.95
2023-05-09T06:33:38.026Z,31.40
2023-05-09T06:36:06.468Z,22.27
2023-05-09T06:38:34.144Z,34.63
2023-05-09T06:41:01.049Z,25.10
2023-05-09T06:43:27.821Z,26.23
2023-05-09T06:45:54.605Z,25.42
2023-05-09T06:48:21.394Z,26.27
2023-05-09T06:50:48.313Z,26.35
2023-05-09T06:53:16.892Z,27.13
2023-05-09T06:55:44.122Z,29.75
2023-05-09T06:58:11.063Z,29.90
2023-05-09T07:00:37.964Z,29.15
2023-05-09T07:03:04.911Z,29.10
2023-05-09T07:05:31.668Z,31.05
2023-05-09T07:07:58.459Z,30.75
2023-05-09T07:10:26.740Z,30.63
2023-05-09T07:12:53.547Z,24.60
2023-05-09T07:15:32.483Z,29.20
2023-05-09T07:18:07.232Z,35.75
2023-05-09T07:20:33.958Z,39.42
2023-05-09T07:23:00.769Z,49.42
2023-05-09T07:25:28.865Z,29.45
2023-05-09T07:27:55.566Z,35.28
2023-05-09T07:30:22.741Z,28.50
2023-05-09T07:32:49.490Z,22.45
2023-05-09T07:35:16.376Z,28.63
2023-05-09T07:37:43.344Z,30.55
2023-05-09T07:40:10.796Z,30.00
2023-05-09T07:42:38.883Z,35.40
2023-05-09T07:45:06.836Z,21.83
2023-05-09T07:47:34.043Z,20.30
2023-05-09T07:50:00.743Z,28.48
2023-05-09T07:52:27.468Z,28.00
2023-05-09T07:54:54.119Z,32.58
2023-05-09T07:57:20.808Z,30.25
2023-05-09T07:59:49.132Z,30.60
2023-05-09T08:02:15.886Z,35.97
2023-05-09T08:04:42.602Z,28.70
2023-05-09T08:07:09.302Z,32.58
2023-05-09T08:09:36.183Z,35.20
2023-05-09T08:12:02.967Z,36.83
2023-05-09T08:14:29.670Z,33.83
2023-05-09T08:16:57.812Z,40.40
2023-05-09T08:19:24.626Z,36.53
2023-05-09T08:21:51.330Z,35.38
2023-05-09T08:24:18.032Z,39.75
2023-05-09T08:26:44.757Z,35.47
2023-05-09T08:29:11.511Z,36.42
2023-05-09T08:31:38.630Z,35.47
2023-05-09T08:34:07.126Z,24.52
2023-05-09T08:36:33.909Z,32.83
2023-05-09T08:39:00.980Z,46.85
2023-05-09T08:41:27.818Z,24.67
2023-05-09T08:43:56.571Z,35.97
2023-05-09T08:46:27.864Z,27.08
2023-05-09T08:48:55.142Z,22.75
2023-05-09T08:51:23.831Z,26.80
2023-05-09T08:53:50.975Z,23.70
2023-05-09T08:56:18.468Z,34.10
2023-05-09T08:58:45.771Z,31.80
2023-05-09T09:01:13.907Z,29.45
2023-05-09T09:03:41.692Z,22.30
2023-05-09T09:06:09.727Z,36.67
2023-05-09T09:08:38.124Z,23.20
2023-05-09T09:11:04.989Z,40.72
2023-05-09T09:13:34.924Z,30.08
2023-05-09T09:16:02.136Z,21.52
2023-05-09T09:18:30.327Z,25.10
2023-05-09T09:21:00.984Z,30.23
2023-05-09T09:23:30.477Z,23.65
2023-05-09T09:28:27.148Z,21.83
2023-05-09T09:30:53.991Z,30.98
2023-05-09T09:33:21.219Z,24.20
2023-05-09T09:35:49.105Z,24.73
2023-05-09T09:38:17.239Z,26.13
2023-05-09T09:40:49.241Z,25.08
2023-05-09T09:43:17.407Z,27.23
2023-05-09T09:45:44.239Z,22.08
2023-05-09T09:48:11.021Z,26.83
2023-05-09T09:50:37.983Z,18.40
2023-05-09T09:53:04.738Z,23.33
2023-05-09T09:55:32.053Z,21.75
2023-05-09T09:57:58.767Z,25.77
2023-05-09T10:00:28.291Z,23.25
2023-05-09T10:02:56.278Z,22.75
2023-05-09T10:05:24.652Z,23.15
2023-05-09T10:07:54.553Z,21.30
2023-05-09T10:10:21.600Z,27.33
2023-05-09T10:12:50.286Z,21.60
2023-05-09T10:15:17.888Z,16.52
2023-05-09T10:17:46.267Z,24.42
2023-05-09T10:20:13.917Z,21.75
2023-05-09T10:22:41.762Z,22.38
2023-05-09T10:25:14.998Z,24.38
2023-05-09T10:27:46.300Z,22.98
2023-05-09T10:30:17.079Z,26.30
2023-05-09T10:32:54.786Z,34.60
2023-05-09T10:35:27.995Z,37.20
2023-05-09T10:37:56.192Z,46.33
2023-05-09T10:40:23.538Z,22.52
2023-05-09T10:42:50.929Z,35.25
2023-05-09T10:45:17.994Z,23.67
2023-05-09T10:47:45.939Z,38.10
2023-05-09T10:50:16.278Z,26.95
2023-05-09T10:53:16.237Z,34.50
2023-05-09T10:55:50.364Z,31.10
2023-05-09T10:58:28.014Z,23.77
2023-05-09T11:00:57.288Z,42.35
2023-05-09T11:03:25.553Z,21.15
2023-05-09T11:05:56.269Z,24.45
2023-05-09T11:08:25.267Z,60.60
2023-05-09T11:10:52.866Z,25.77
2023-05-09T11:13:20.905Z,25.83
2023-05-09T11:16:03.379Z,56.55
2023-05-09T11:18:30.787Z,24.92
2023-05-09T11:20:59.880Z,23.42
2023-05-09T11:23:27.618Z,29.70
2023-05-09T11:26:05.043Z,33.00
2023-05-09T11:28:35.606Z,29.10
2023-05-09T11:31:12.843Z,36.78
2023-05-09T11:33:40.572Z,38.90
2023-05-09T11:36:19.749Z,35.97
2023-05-09T11:38:47.534Z,29.15
2023-05-09T11:41:14.340Z,28.90
2023-05-09T11:43:43.310Z,32.63
2023-05-09T11:46:10.177Z,32.65
2023-05-09T11:48:40.800Z,29.63
2023-05-09T11:51:07.690Z,21.48
2023-05-09T11:53:40.594Z,23.70
2023-05-09T11:56:07.536Z,24.60
2023-05-09T11:58:38.676Z,31.95
2023-05-09T12:01:05.663Z,24.58
2023-05-09T12:03:32.559Z,59.97
2023-05-09T12:05:59.495Z,41.75
2023-05-09T12:08:26.165Z,36.38
2023-05-09T12:10:54.331Z,31.60
2023-05-09T12:13:21.097Z,34.10
2023-05-09T12:15:47.922Z,31.90
2023-05-09T12:18:14.817Z,21.33
2023-05-09T12:20:43.184Z,26.38
2023-05-09T12:23:10.668Z,32.67
2023-05-09T12:25:37.426Z,29.52
2023-05-09T12:28:06.049Z,19.08
2023-05-09T12:30:33.088Z,24.25
2023-05-09T12:33:00.316Z,29.30
2023-05-09T12:35:27.797Z,29.83
2023-05-09T12:37:57.412Z,26.25
2023-05-09T12:40:24.857Z,24.00
2023-05-09T12:42:51.669Z,19.83
2023-05-09T12:45:20.288Z,29.60
2023-05-09T12:47:51.746Z,19.40
2023-05-09T12:50:19.089Z,24.52
2023-05-09T12:53:02.171Z,22.63
2023-05-09T12:55:30.940Z,29.92
2023-05-09T12:57:59.421Z,22.45
2023-05-09T13:00:27.705Z,21.92
2023-05-09T13:02:54.845Z,40.70
2023-05-09T13:05:23.283Z,18.38
2023-05-09T13:07:51.690Z,21.75
2023-05-09T13:10:20.110Z,23.25
2023-05-09T13:12:47.356Z,25.33
2023-05-09T13:15:15.086Z,25.13
2023-05-09T13:17:43.545Z,24.92
2023-05-09T13:20:10.396Z,26.42
2023-05-09T13:22:37.506Z,29.05
2023-05-09T13:25:04.885Z,43.42
2023-05-09T13:27:32.380Z,33.90
2023-05-09T13:29:59.296Z,32.38
2023-05-09T13:32:26.096Z,24.33
2023-05-09T13:34:54.218Z,20.55
2023-05-09T13:37:21.436Z,27.77
2023-05-09T13:39:48.343Z,23.02
2023-05-09T13:42:16.756Z,31.40
2023-05-09T13:47:11.463Z,24.13
2023-05-09T13:49:38.667Z,26.30
2023-05-09T13:52:10.332Z,31.67
2023-05-09T13:54:37.110Z,23.98
2023-05-09T13:57:05.023Z,22.77
2023-05-09T13:59:32.103Z,23.83
2023-05-09T14:01:59.229Z,21.13
2023-05-09T14:04:26.401Z,28.58
2023-05-09T14:06:53.150Z,28.25
2023-05-09T14:09:22.160Z,21.55
2023-05-09T14:11:49.022Z,25.98
2023-05-09T14:14:15.693Z,20.90
2023-05-09T14:16:42.395Z,20.58
2023-05-09T14:19:09.281Z,19.98
2023-05-09T14:21:36.034Z,20.55
2023-05-09T14:24:02.912Z,20.17
2023-05-09T14:26:31.011Z,15.52
2023-05-09T14:28:57.767Z,15.50
2023-05-09T14:31:24.599Z,15.63
2023-05-09T14:33:51.399Z,14.82
2023-05-09T14:36:18.170Z,14.43
2023-05-09T14:38:44.912Z,13.77
2023-05-09T14:41:11.822Z,15.80
2023-05-09T14:43:39.961Z,14.82
2023-05-09T14:46:06.712Z,16.60
2023-05-09T14:48:33.648Z,15.88
2023-05-09T14:51:00.584Z,14.32
2023-05-09T14:53:27.952Z,16.48
2023-05-09T14:55:54.833Z,15.68
2023-05-09T14:58:21.775Z,17.13
2023-05-09T15:00:50.332Z,11.52
2023-05-09T15:03:17.063Z,22.50
2023-05-09T15:05:44.689Z,40.20
2023-05-09T15:08:11.476Z,14.48
2023-05-09T15:13:22.557Z,26.63
2023-05-09T15:15:52.186Z,14.57
2023-05-09T15:18:18.948Z,15.20
2023-05-09T15:20:47.185Z,15.68
2023-05-09T15:23:14.082Z,14.00
2023-05-09T15:25:42.665Z,17.60
2023-05-09T15:28:09.450Z,15.20
2023-05-09T15:30:38.205Z,13.43
2023-05-09T15:33:06.967Z,16.45
2023-05-09T15:35:34.096Z,15.18
2023-05-09T15:38:00.839Z,17.60
2023-05-09T15:40:27.764Z,19.50
2023-05-09T15:42:54.503Z,13.00
2023-05-09T15:45:21.252Z,15.70
2023-05-09T15:47:47.988Z,14.70
2023-05-09T15:50:16.858Z,14.10
2023-05-09T15:52:43.807Z,14.00
2023-05-09T15:55:11.413Z,14.60
2023-05-09T15:57:38.497Z,18.13
2023-05-09T16:00:06.547Z,14.07
2023-05-09T16:02:39.260Z,15.75
2023-05-09T16:05:06.745Z,13.77
2023-05-09T16:07:35.892Z,14.90
2023-05-09T16:10:03.050Z,14.07
2023-05-09T16:12:29.879Z,14.18
2023-05-09T16:14:56.716Z,14.05
2023-05-09T16:17:23.587Z,14.82
2023-05-09T16:19:50.274Z,14.40
2023-05-09T16:22:16.961Z,14.10
2023-05-09T16:24:45.110Z,15.43
2023-05-09T16:27:12.811Z,13.20
2023-05-09T16:29:39.509Z,13.80
2023-05-09T16:32:07.015Z,13.90
2023-05-09T16:34:33.724Z,13.25
2023-05-09T16:37:00.434Z,13.68
2023-05-09T16:39:27.273Z,14.20
2023-05-09T16:41:55.619Z,14.45
2023-05-09T16:44:22.998Z,14.90
2023-05-09T16:46:49.662Z,11.55
2023-05-09T16:49:16.337Z,12.77
2023-05-09T16:51:43.382Z,19.50
2023-05-09T16:54:10.441Z,13.10
2023-05-09T16:56:37.518Z,13.02
2023-05-09T16:59:05.639Z,14.57
2023-05-09T17:01:32.572Z,14.73
2023-05-09T17:03:59.622Z,16.08
2023-05-09T17:06:26.413Z,10.50
2023-05-09T17:08:53.262Z,16.80
2023-05-09T17:11:20.107Z,14.93
2023-05-09T17:13:47.087Z,18.65
2023-05-09T17:16:15.239Z,14.18
2023-05-09T17:18:41.960Z,15.45
2023-05-09T17:21:08.703Z,14.02
2023-05-09T17:23:35.510Z,15.05
2023-05-09T17:26:02.445Z,18.17
2023-05-09T17:28:29.596Z,15.95
2023-05-09T17:30:56.395Z,17.73
2023-05-09T17:33:25.580Z,16.60
2023-05-09T17:35:52.492Z,19.27
2023-05-09T17:38:19.218Z,16.48
2023-05-09T17:40:46.011Z,20.08
2023-05-09T17:43:12.757Z,14.63
2023-05-09T17:45:39.827Z,14.40
2023-05-09T17:48:07.003Z,14.35
2023-05-09T17:50:35.295Z,13.23
2023-05-09T17:53:02.198Z,15.15
2023-05-09T17:55:28.873Z,13.80
2023-05-09T17:57:55.681Z,13.55
2023-05-09T18:00:22.663Z,14.35
2023-05-09T18:02:49.415Z,13.65
2023-05-09T18:05:16.245Z,24.33
2023-05-09T18:07:45.048Z,16.45
2023-05-09T18:10:11.935Z,21.58
2023-05-09T18:12:38.681Z,15.18
2023-05-09T18:15:07.739Z,15.80
2023-05-09T18:17:34.588Z,15.75
2023-05-09T18:20:01.402Z,15.27
2023-05-09T18:22:28.234Z,16.35
2023-05-09T18:24:56.360Z,15.35
2023-05-09T18:27:23.101Z,13.93
2023-05-09T18:29:49.871Z,11.93
2023-05-09T18:32:16.711Z,13.15
2023-05-09T18:34:43.601Z,23.90
2023-05-09T18:37:10.406Z,13.40
2023-05-09T18:39:37.176Z,17.67
2023-05-09T18:42:05.539Z,55.92
2023-05-09T18:44:32.254Z,15.85
2023-05-09T18:46:59.068Z,69.60
2023-05-09T18:49:26.367Z,15.68
2023-05-09T18:51:53.152Z,16.38
2023-05-09T18:54:20.208Z,15.75
2023-05-09T18:56:46.880Z,15.73
2023-05-09T18:59:15.133Z,14.65
2023-05-09T19:01:41.876Z,14.43
2023-05-09T19:04:08.741Z,12.93
2023-05-09T19:06:35.659Z,15.50
2023-05-09T19:09:07.624Z,14.50
2023-05-09T19:11:35.397Z,12.80
2023-05-09T19:14:02.687Z,10.07
2023-05-09T19:16:31.154Z,10.35
2023-05-09T19:18:58.873Z,9.25
2023-05-09T19:21:26.167Z,13.63
2023-05-09T19:23:52.958Z,15.48
2023-05-09T19:26:20.092Z,21.90
2023-05-09T19:28:47.292Z,12.38
2023-05-09T19:31:14.915Z,15.02
2023-05-09T19:33:44.066Z,13.38
2023-05-09T19:36:11.154Z,13.45
2023-05-09T19:38:38.079Z,8.07
2023-05-09T19:41:04.788Z,13.32
2023-05-09T19:43:32.633Z,10.15
2023-05-09T19:45:59.515Z,15.45
2023-05-09T19:48:26.321Z,14.02
2023-05-09T19:50:56.814Z,13.77
2023-05-09T19:53:23.579Z,15.23
2023-05-09T19:55:50.297Z,14.48
2023-05-09T19:58:17.706Z,10.18
2023-05-09T20:00:44.860Z,14.05
2023-05-09T20:03:11.804Z,15.70
2023-05-09T20:08:24.373Z,19.98
2023-05-09T20:10:51.159Z,16.85
2023-05-09T20:13:17.959Z,17.52
2023-05-09T20:15:44.685Z,18.50
2023-05-09T20:18:11.754Z,14.90
2023-05-09T20:20:38.743Z,16.67
2023-05-09T20:23:05.559Z,15.77
2023-05-09T20:25:33.682Z,16.60
2023-05-09T20:28:00.587Z,14.68
2023-05-09T20:30:27.565Z,14.90
2023-05-09T20:32:54.357Z,14.82
2023-05-09T20:35:21.283Z,13.68
2023-05-09T20:37:48.040Z,13.88
2023-05-09T20:40:15.205Z,16.00
2023-05-09T20:42:43.897Z,16.48
2023-05-09T20:45:10.752Z,17.20
2023-05-09T20:47:37.457Z,15.80
2023-05-09T20:50:04.740Z,15.38
2023-05-09T20:52:31.416Z,16.75
2023-05-09T20:54:58.180Z,17.08
2023-05-09T20:57:24.874Z,17.20
2023-05-09T20:59:53.085Z,18.90
2023-05-09T21:02:19.925Z,19.25
2023-05-09T21:04:46.611Z,19.58
2023-05-09T21:07:13.532Z,17.75
2023-05-09T21:09:40.917Z,18.05
2023-05-09T21:12:10.501Z,17.38
2023-05-09T21:14:37.842Z,16.88
2023-05-09T21:17:06.239Z,17.20
2023-05-09T21:19:33.158Z,17.48
2023-05-09T21:21:59.903Z,16.77
2023-05-09T21:24:26.929Z,17.10
2023-05-09T21:26:53.624Z,17.42
2023-05-09T21:29:20.318Z,14.73
2023-05-09T21:31:47.005Z,15.63
2023-05-09T21:34:15.075Z,13.70
2023-05-09T21:36:41.763Z,16.83
2023-05-09T21:39:08.641Z,16.20
2023-05-09T21:41:35.750Z,16.30
2023-05-09T21:44:02.754Z,16.00
2023-05-09T21:46:31.455Z,15.48
2023-05-09T21:48:58.232Z,15.40
2023-05-09T21:51:27.024Z,14.52
2023-05-09T21:53:53.809Z,15.07
2023-05-09T21:56:20.759Z,17.30
2023-05-09T21:58:47.616Z,10.95
2023-05-09T22:01:15.664Z,16.45
2023-05-09T22:03:43.193Z,16.58
2023-05-09T22:06:09.946Z,14.82
2023-05-09T22:08:38.118Z,14.77
2023-05-09T22:11:04.833Z,14.95
2023-05-09T22:13:31.506Z,15.10
2023-05-09T22:15:58.179Z,13.88
2023-05-09T22:18:24.907Z,13.77
2023-05-09T22:20:51.596Z,13.13
2023-05-09T22:23:18.323Z,15.23
2023-05-09T22:25:46.430Z,14.45
2023-05-09T22:28:13.107Z,11.35
2023-05-09T22:30:39.862Z,14.20
2023-05-09T22:33:06.727Z,14.02
2023-05-09T22:35:33.566Z,14.95
2023-05-09T22:38:00.298Z,13.55
2023-05-09T22:40:27.064Z,15.00
2023-05-09T22:42:55.118Z,14.43
2023-05-09T22:45:21.984Z,14.93
2023-05-09T22:47:48.802Z,12.50
2023-05-09T22:50:15.905Z,21.17
2023-05-09T22:52:42.801Z,16.17
2023-05-09T22:55:10.136Z,17.27
2023-05-09T22:57:36.822Z,17.33
2023-05-09T23:00:06.382Z,16.83
2023-05-09T23:02:33.311Z,15.57
2023-05-09T23:05:00.169Z,15.68
2023-05-09T23:07:26.859Z,17.85
2023-05-09T23:09:53.597Z,15.27
2023-05-09T23:12:20.426Z,15.07
2023-05-09T23:14:47.140Z,15.48
2023-05-09T23:17:15.245Z,18.00
2023-05-09T23:19:42.109Z,14.50
2023-05-09T23:22:08.944Z,14.65
2023-05-09T23:24:35.700Z,13.15
2023-05-09T23:27:02.510Z,47.50
2023-05-09T23:29:29.320Z,14.95
2023-05-09T23:31:56.168Z,36.65
2023-05-09T23:34:24.261Z,18.15
2023-05-09T23:36:51.051Z,27.63
2023-05-09T23:39:17.772Z,16.17
2023-05-09T23:41:44.524Z,14.63
2023-05-09T23:44:11.452Z,14.60
2023-05-09T23:46:38.197Z,17.05
2023-05-09T23:49:04.994Z,74.80
2023-05-09T23:51:33.220Z,15.32
2023-05-09T23:54:00.169Z,14.45
2023-05-09T23:56:26.927Z,15.82
2023-05-09T23:58:53.745Z,17.13
